sensor_id;sensor_type;location;lat;lon;timestamp;P1;durP1;ratioP1;P2;durP2;ratioP2
23722;SDS011;12042;52.136;5.584;2022-07-29T00:00:14;2.17;;;1.17;;
23722;SDS011;12042;52.136;5.584;2022-07-29T00:02:40;2.38;;;1.05;;
23722;SDS011;12042;52.136;5.584;2022-07-29T00:05:06;3.92;;;1.13;;
23722;SDS011;12042;52.136;5.584;2022-07-29T00:07:33;3.45;;;1.38;;
23722;SDS011;12042;52.136;5.584;2022-07-29T00:09:59;2.45;;;1.23;;
23722;SDS011;12042;52.136;5.584;2022-07-29T00:12:25;1.92;;;1.20;;
23722;SDS011;12042;52.136;5.584;2022-07-29T00:14:51;1.95;;;1.30;;
23722;SDS011;12042;52.136;5.584;2022-07-29T00:17:17;1.77;;;1.30;;
23722;SDS011;12042;52.136;5.584;2022-07-29T00:19:43;1.50;;;1.10;;
23722;SDS011;12042;52.136;5.584;2022-07-29T00:22:08;1.55;;;1.13;;
23722;SDS011;12042;52.136;5.584;2022-07-29T00:24:34;2.05;;;1.40;;
23722;SDS011;12042;52.136;5.584;2022-07-29T00:26:59;1.92;;;1.52;;
23722;SDS011;12042;52.136;5.584;2022-07-29T00:29:25;2.20;;;1.27;;
23722;SDS011;12042;52.136;5.584;2022-07-29T00:31:51;1.95;;;1.20;;
23722;SDS011;12042;52.136;5.584;2022-07-29T00:34:16;1.88;;;1.20;;
23722;SDS011;12042;52.136;5.584;2022-07-29T00:37:00;1.88;;;1.00;;
23722;SDS011;12042;52.136;5.584;2022-07-29T00:39:26;2.08;;;1.17;;
23722;SDS011;12042;52.136;5.584;2022-07-29T00:41:52;1.40;;;1.30;;
23722;SDS011;12042;52.136;5.584;2022-07-29T00:44:17;5.25;;;1.40;;
23722;SDS011;12042;52.136;5.584;2022-07-29T00:46:43;2.83;;;1.33;;
23722;SDS011;12042;52.136;5.584;2022-07-29T00:49:08;2.65;;;1.40;;
23722;SDS011;12042;52.136;5.584;2022-07-29T00:51:35;1.80;;;1.20;;
23722;SDS011;12042;52.136;5.584;2022-07-29T00:54:02;1.42;;;1.23;;
23722;SDS011;12042;52.136;5.584;2022-07-29T00:56:29;1.80;;;1.42;;
23722;SDS011;12042;52.136;5.584;2022-07-29T00:58:56;3.35;;;1.25;;
23722;SDS011;12042;52.136;5.584;2022-07-29T01:01:22;2.60;;;1.15;;
23722;SDS011;12042;52.136;5.584;2022-07-29T01:03:48;2.95;;;1.40;;
23722;SDS011;12042;52.136;5.584;2022-07-29T01:06:14;3.78;;;1.67;;
23722;SDS011;12042;52.136;5.584;2022-07-29T01:08:41;2.10;;;1.40;;
23722;SDS011;12042;52.136;5.584;2022-07-29T01:11:07;1.65;;;1.50;;
23722;SDS011;12042;52.136;5.584;2022-07-29T01:13:34;4.63;;;1.48;;
23722;SDS011;12042;52.136;5.584;2022-07-29T01:16:03;1.45;;;1.35;;
23722;SDS011;12042;52.136;5.584;2022-07-29T01:18:34;1.75;;;1.30;;
23722;SDS011;12042;52.136;5.584;2022-07-29T01:21:21;4.60;;;1.40;;
23722;SDS011;12042;52.136;5.584;2022-07-29T01:26:41;1.98;;;1.42;;
23722;SDS011;12042;52.136;5.584;2022-07-29T01:29:16;2.47;;;1.73;;
23722;SDS011;12042;52.136;5.584;2022-07-29T01:32:14;2.20;;;1.70;;
23722;SDS011;12042;52.136;5.584;2022-07-29T01:37:47;3.38;;;1.70;;
23722;SDS011;12042;52.136;5.584;2022-07-29T01:40:27;1.98;;;1.60;;
23722;SDS011;12042;52.136;5.584;2022-07-29T01:43:11;3.00;;;1.60;;
23722;SDS011;12042;52.136;5.584;2022-07-29T01:45:41;1.73;;;1.60;;
23722;SDS011;12042;52.136;5.584;2022-07-29T01:50:47;2.78;;;1.90;;
23722;SDS011;12042;52.136;5.584;2022-07-29T01:53:23;1.85;;;1.75;;
23722;SDS011;12042;52.136;5.584;2022-07-29T01:55:54;2.75;;;1.70;;
23722;SDS011;12042;52.136;5.584;2022-07-29T01:58:22;4.40;;;1.83;;
23722;SDS011;12042;52.136;5.584;2022-07-29T02:00:49;4.30;;;2.38;;
23722;SDS011;12042;52.136;5.584;2022-07-29T02:03:17;2.13;;;1.90;;
23722;SDS011;12042;52.136;5.584;2022-07-29T02:05:43;3.60;;;1.80;;
23722;SDS011;12042;52.136;5.584;2022-07-29T02:08:11;3.90;;;1.73;;
23722;SDS011;12042;52.136;5.584;2022-07-29T02:10:40;1.77;;;1.50;;
23722;SDS011;12042;52.136;5.584;2022-07-29T02:13:07;4.95;;;1.73;;
23722;SDS011;12042;52.136;5.584;2022-07-29T02:15:36;2.78;;;1.83;;
23722;SDS011;12042;52.136;5.584;2022-07-29T02:18:05;4.95;;;2.10;;
23722;SDS011;12042;52.136;5.584;2022-07-29T02:20:37;2.47;;;1.85;;
23722;SDS011;12042;52.136;5.584;2022-07-29T02:23:05;1.92;;;1.80;;
23722;SDS011;12042;52.136;5.584;2022-07-29T02:25:32;2.28;;;1.52;;
23722;SDS011;12042;52.136;5.584;2022-07-29T02:27:58;1.73;;;1.63;;
23722;SDS011;12042;52.136;5.584;2022-07-29T02:30:26;1.80;;;1.70;;
23722;SDS011;12042;52.136;5.584;2022-07-29T02:32:53;4.13;;;1.80;;
23722;SDS011;12042;52.136;5.584;2022-07-29T02:35:21;2.28;;;1.88;;
23722;SDS011;12042;52.136;5.584;2022-07-29T02:37:47;1.88;;;1.77;;
23722;SDS011;12042;52.136;5.584;2022-07-29T02:40:34;2.22;;;2.03;;
23722;SDS011;12042;52.136;5.584;2022-07-29T02:43:03;4.32;;;1.92;;
23722;SDS011;12042;52.136;5.584;2022-07-29T02:45:32;4.78;;;2.13;;
23722;SDS011;12042;52.136;5.584;2022-07-29T02:47:59;2.78;;;1.98;;
23722;SDS011;12042;52.136;5.584;2022-07-29T02:50:32;2.45;;;1.80;;
23722;SDS011;12042;52.136;5.584;2022-07-29T02:53:13;2.47;;;2.13;;
23722;SDS011;12042;52.136;5.584;2022-07-29T02:55:56;2.80;;;2.10;;
23722;SDS011;12042;52.136;5.584;2022-07-29T02:58:28;2.13;;;1.92;;
23722;SDS011;12042;52.136;5.584;2022-07-29T03:00:56;3.00;;;1.80;;
23722;SDS011;12042;52.136;5.584;2022-07-29T03:03:28;2.50;;;1.98;;
23722;SDS011;12042;52.136;5.584;2022-07-29T03:05:56;5.35;;;2.00;;
23722;SDS011;12042;52.136;5.584;2022-07-29T03:08:23;2.80;;;2.00;;
23722;SDS011;12042;52.136;5.584;2022-07-29T03:10:51;2.22;;;2.00;;
23722;SDS011;12042;52.136;5.584;2022-07-29T03:13:18;2.65;;;2.00;;
23722;SDS011;12042;52.136;5.584;2022-07-29T03:15:45;1.90;;;1.80;;
23722;SDS011;12042;52.136;5.584;2022-07-29T03:18:12;2.55;;;1.90;;
23722;SDS011;12042;52.136;5.584;2022-07-29T03:20:38;4.45;;;1.90;;
23722;SDS011;12042;52.136;5.584;2022-07-29T03:23:04;2.08;;;1.88;;
23722;SDS011;12042;52.136;5.584;2022-07-29T03:25:30;4.28;;;2.10;;
23722;SDS011;12042;52.136;5.584;2022-07-29T03:27:56;3.35;;;2.10;;
23722;SDS011;12042;52.136;5.584;2022-07-29T03:30:22;1.80;;;1.70;;
23722;SDS011;12042;52.136;5.584;2022-07-29T03:32:48;3.75;;;1.73;;
23722;SDS011;12042;52.136;5.584;2022-07-29T03:35:15;1.88;;;1.77;;
23722;SDS011;12042;52.136;5.584;2022-07-29T03:37:44;3.22;;;2.13;;
23722;SDS011;12042;52.136;5.584;2022-07-29T03:40:11;1.95;;;1.77;;
23722;SDS011;12042;52.136;5.584;2022-07-29T03:42:42;4.75;;;1.92;;
23722;SDS011;12042;52.136;5.584;2022-07-29T03:45:12;3.53;;;1.80;;
23722;SDS011;12042;52.136;5.584;2022-07-29T03:47:43;2.25;;;1.70;;
23722;SDS011;12042;52.136;5.584;2022-07-29T03:50:12;2.45;;;1.90;;
23722;SDS011;12042;52.136;5.584;2022-07-29T03:52:40;2.22;;;1.80;;
23722;SDS011;12042;52.136;5.584;2022-07-29T03:55:06;1.95;;;1.73;;
23722;SDS011;12042;52.136;5.584;2022-07-29T03:57:33;1.80;;;1.70;;
23722;SDS011;12042;52.136;5.584;2022-07-29T04:00:01;2.20;;;2.00;;
23722;SDS011;12042;52.136;5.584;2022-07-29T04:02:29;2.97;;;2.10;;
23722;SDS011;12042;52.136;5.584;2022-07-29T04:04:56;2.03;;;1.90;;
23722;SDS011;12042;52.136;5.584;2022-07-29T04:07:22;2.92;;;1.67;;
23722;SDS011;12042;52.136;5.584;2022-07-29T04:09:48;2.63;;;1.73;;
23722;SDS011;12042;52.136;5.584;2022-07-29T04:12:14;3.35;;;1.83;;
23722;SDS011;12042;52.136;5.584;2022-07-29T04:14:39;1.60;;;1.50;;
23722;SDS011;12042;52.136;5.584;2022-07-29T04:17:05;4.22;;;1.40;;
23722;SDS011;12042;52.136;5.584;2022-07-29T04:19:31;2.72;;;1.80;;
23722;SDS011;12042;52.136;5.584;2022-07-29T04:21:58;3.25;;;2.35;;
23722;SDS011;12042;52.136;5.584;2022-07-29T04:24:24;1.83;;;1.67;;
23722;SDS011;12042;52.136;5.584;2022-07-29T04:26:50;2.13;;;1.67;;
23722;SDS011;12042;52.136;5.584;2022-07-29T04:29:16;2.03;;;1.67;;
23722;SDS011;12042;52.136;5.584;2022-07-29T04:31:42;5.10;;;1.80;;
23722;SDS011;12042;52.136;5.584;2022-07-29T04:34:08;2.05;;;1.77;;
23722;SDS011;12042;52.136;5.584;2022-07-29T04:36:38;2.75;;;1.50;;
23722;SDS011;12042;52.136;5.584;2022-07-29T04:39:04;2.58;;;1.70;;
23722;SDS011;12042;52.136;5.584;2022-07-29T04:41:30;2.28;;;1.73;;
23722;SDS011;12042;52.136;5.584;2022-07-29T04:43:56;1.77;;;1.50;;
23722;SDS011;12042;52.136;5.584;2022-07-29T04:46:21;2.03;;;1.42;;
23722;SDS011;12042;52.136;5.584;2022-07-29T04:48:47;3.17;;;2.00;;
23722;SDS011;12042;52.136;5.584;2022-07-29T04:51:14;2.00;;;1.48;;
23722;SDS011;12042;52.136;5.584;2022-07-29T04:53:40;2.13;;;1.90;;
23722;SDS011;12042;52.136;5.584;2022-07-29T04:56:06;1.55;;;1.42;;
23722;SDS011;12042;52.136;5.584;2022-07-29T04:58:33;4.50;;;1.63;;
23722;SDS011;12042;52.136;5.584;2022-07-29T05:01:00;2.40;;;1.70;;
23722;SDS011;12042;52.136;5.584;2022-07-29T05:03:25;2.05;;;1.80;;
23722;SDS011;12042;52.136;5.584;2022-07-29T05:05:51;4.20;;;1.60;;
23722;SDS011;12042;52.136;5.584;2022-07-29T05:08:17;2.50;;;1.77;;
23722;SDS011;12042;52.136;5.584;2022-07-29T05:10:42;2.15;;;1.95;;
23722;SDS011;12042;52.136;5.584;2022-07-29T05:13:08;6.28;;;1.83;;
23722;SDS011;12042;52.136;5.584;2022-07-29T05:15:34;4.45;;;1.70;;
23722;SDS011;12042;52.136;5.584;2022-07-29T05:18:00;3.17;;;2.03;;
23722;SDS011;12042;52.136;5.584;2022-07-29T05:20:26;1.90;;;1.80;;
23722;SDS011;12042;52.136;5.584;2022-07-29T05:22:57;4.22;;;1.85;;
23722;SDS011;12042;52.136;5.584;2022-07-29T05:25:24;4.07;;;2.05;;
23722;SDS011;12042;52.136;5.584;2022-07-29T05:27:51;3.45;;;1.90;;
23722;SDS011;12042;52.136;5.584;2022-07-29T05:30:17;2.30;;;2.10;;
23722;SDS011;12042;52.136;5.584;2022-07-29T05:32:43;2.80;;;1.98;;
23722;SDS011;12042;52.136;5.584;2022-07-29T05:35:09;2.63;;;2.35;;
23722;SDS011;12042;52.136;5.584;2022-07-29T05:37:35;4.80;;;1.90;;
23722;SDS011;12042;52.136;5.584;2022-07-29T05:40:01;4.72;;;1.90;;
23722;SDS011;12042;52.136;5.584;2022-07-29T05:42:27;2.45;;;2.25;;
23722;SDS011;12042;52.136;5.584;2022-07-29T05:44:54;3.95;;;2.20;;
23722;SDS011;12042;52.136;5.584;2022-07-29T05:47:19;3.53;;;2.10;;
23722;SDS011;12042;52.136;5.584;2022-07-29T05:49:45;3.67;;;1.90;;
23722;SDS011;12042;52.136;5.584;2022-07-29T05:52:11;5.13;;;2.20;;
23722;SDS011;12042;52.136;5.584;2022-07-29T05:54:38;4.18;;;2.40;;
23722;SDS011;12042;52.136;5.584;2022-07-29T05:57:04;3.15;;;2.00;;
23722;SDS011;12042;52.136;5.584;2022-07-29T05:59:30;3.83;;;2.33;;
23722;SDS011;12042;52.136;5.584;2022-07-29T06:01:59;5.72;;;1.98;;
23722;SDS011;12042;52.136;5.584;2022-07-29T06:04:25;2.45;;;2.22;;
23722;SDS011;12042;52.136;5.584;2022-07-29T06:06:51;4.90;;;2.40;;
23722;SDS011;12042;52.136;5.584;2022-07-29T06:09:16;6.43;;;2.83;;
23722;SDS011;12042;52.136;5.584;2022-07-29T06:11:42;2.20;;;1.90;;
23722;SDS011;12042;52.136;5.584;2022-07-29T06:14:08;3.50;;;2.30;;
23722;SDS011;12042;52.136;5.584;2022-07-29T06:16:33;2.60;;;2.40;;
23722;SDS011;12042;52.136;5.584;2022-07-29T06:18:59;4.65;;;2.10;;
23722;SDS011;12042;52.136;5.584;2022-07-29T06:21:24;4.03;;;2.40;;
23722;SDS011;12042;52.136;5.584;2022-07-29T06:23:50;4.82;;;2.58;;
23722;SDS011;12042;52.136;5.584;2022-07-29T06:26:16;5.93;;;2.80;;
23722;SDS011;12042;52.136;5.584;2022-07-29T06:28:41;2.55;;;2.35;;
23722;SDS011;12042;52.136;5.584;2022-07-29T06:31:07;5.53;;;2.80;;
23722;SDS011;12042;52.136;5.584;2022-07-29T06:33:33;3.22;;;2.60;;
23722;SDS011;12042;52.136;5.584;2022-07-29T06:35:58;2.95;;;2.65;;
23722;SDS011;12042;52.136;5.584;2022-07-29T06:38:24;6.43;;;2.55;;
23722;SDS011;12042;52.136;5.584;2022-07-29T06:40:50;10.48;;;2.67;;
23722;SDS011;12042;52.136;5.584;2022-07-29T06:43:25;3.38;;;2.60;;
23722;SDS011;12042;52.136;5.584;2022-07-29T06:46:03;3.83;;;2.70;;
23722;SDS011;12042;52.136;5.584;2022-07-29T06:48:30;3.83;;;3.00;;
23722;SDS011;12042;52.136;5.584;2022-07-29T06:50:56;5.85;;;2.80;;
23722;SDS011;12042;52.136;5.584;2022-07-29T06:53:22;2.83;;;2.63;;
23722;SDS011;12042;52.136;5.584;2022-07-29T06:55:48;3.58;;;2.90;;
23722;SDS011;12042;52.136;5.584;2022-07-29T06:58:14;4.53;;;2.58;;
23722;SDS011;12042;52.136;5.584;2022-07-29T07:00:42;3.03;;;2.83;;
23722;SDS011;12042;52.136;5.584;2022-07-29T07:03:09;2.80;;;2.60;;
23722;SDS011;12042;52.136;5.584;2022-07-29T07:05:34;3.08;;;2.45;;
23722;SDS011;12042;52.136;5.584;2022-07-29T07:08:00;2.97;;;2.78;;
23722;SDS011;12042;52.136;5.584;2022-07-29T07:10:26;3.78;;;2.40;;
23722;SDS011;12042;52.136;5.584;2022-07-29T07:12:52;5.65;;;3.25;;
23722;SDS011;12042;52.136;5.584;2022-07-29T07:15:18;2.97;;;2.67;;
23722;SDS011;12042;52.136;5.584;2022-07-29T07:17:47;3.00;;;2.80;;
23722;SDS011;12042;52.136;5.584;2022-07-29T07:20:13;4.20;;;2.92;;
23722;SDS011;12042;52.136;5.584;2022-07-29T07:22:39;4.78;;;3.08;;
23722;SDS011;12042;52.136;5.584;2022-07-29T07:25:05;3.13;;;2.80;;
23722;SDS011;12042;52.136;5.584;2022-07-29T07:27:31;5.60;;;3.08;;
23722;SDS011;12042;52.136;5.584;2022-07-29T07:29:57;5.57;;;3.15;;
23722;SDS011;12042;52.136;5.584;2022-07-29T07:32:23;5.30;;;2.95;;
23722;SDS011;12042;52.136;5.584;2022-07-29T07:34:48;3.78;;;3.00;;
23722;SDS011;12042;52.136;5.584;2022-07-29T07:37:14;6.35;;;3.03;;
23722;SDS011;12042;52.136;5.584;2022-07-29T07:39:40;2.58;;;2.38;;
23722;SDS011;12042;52.136;5.584;2022-07-29T07:42:06;5.38;;;3.10;;
23722;SDS011;12042;52.136;5.584;2022-07-29T07:44:32;2.53;;;2.33;;
23722;SDS011;12042;52.136;5.584;2022-07-29T07:46:57;3.33;;;2.80;;
23722;SDS011;12042;52.136;5.584;2022-07-29T07:49:23;3.13;;;2.58;;
23722;SDS011;12042;52.136;5.584;2022-07-29T07:51:49;5.43;;;2.95;;
23722;SDS011;12042;52.136;5.584;2022-07-29T07:54:15;4.10;;;2.50;;
23722;SDS011;12042;52.136;5.584;2022-07-29T07:56:40;2.97;;;2.65;;
23722;SDS011;12042;52.136;5.584;2022-07-29T07:59:06;3.30;;;2.53;;
23722;SDS011;12042;52.136;5.584;2022-07-29T08:01:31;5.32;;;2.70;;
23722;SDS011;12042;52.136;5.584;2022-07-29T08:03:57;4.30;;;2.50;;
23722;SDS011;12042;52.136;5.584;2022-07-29T08:06:23;3.13;;;2.83;;
23722;SDS011;12042;52.136;5.584;2022-07-29T08:08:50;3.70;;;2.58;;
23722;SDS011;12042;52.136;5.584;2022-07-29T08:11:16;4.82;;;2.40;;
23722;SDS011;12042;52.136;5.584;2022-07-29T08:13:42;3.40;;;2.50;;
23722;SDS011;12042;52.136;5.584;2022-07-29T08:16:08;3.47;;;2.30;;
23722;SDS011;12042;52.136;5.584;2022-07-29T08:18:37;4.82;;;2.30;;
23722;SDS011;12042;52.136;5.584;2022-07-29T08:21:04;2.90;;;2.25;;
23722;SDS011;12042;52.136;5.584;2022-07-29T08:23:30;3.25;;;2.47;;
23722;SDS011;12042;52.136;5.584;2022-07-29T08:26:03;3.85;;;2.30;;
23722;SDS011;12042;52.136;5.584;2022-07-29T08:28:30;4.18;;;2.50;;
23722;SDS011;12042;52.136;5.584;2022-07-29T08:30:55;4.30;;;2.65;;
23722;SDS011;12042;52.136;5.584;2022-07-29T08:33:21;2.47;;;2.00;;
23722;SDS011;12042;52.136;5.584;2022-07-29T08:35:47;2.05;;;1.90;;
23722;SDS011;12042;52.136;5.584;2022-07-29T08:38:14;3.33;;;2.13;;
23722;SDS011;12042;52.136;5.584;2022-07-29T08:40:40;3.97;;;2.00;;
23722;SDS011;12042;52.136;5.584;2022-07-29T08:43:07;6.85;;;2.08;;
23722;SDS011;12042;52.136;5.584;2022-07-29T08:45:36;2.03;;;1.80;;
23722;SDS011;12042;52.136;5.584;2022-07-29T08:48:11;5.00;;;2.10;;
23722;SDS011;12042;52.136;5.584;2022-07-29T08:50:37;2.45;;;2.20;;
23722;SDS011;12042;52.136;5.584;2022-07-29T08:53:04;3.28;;;2.42;;
23722;SDS011;12042;52.136;5.584;2022-07-29T08:55:32;2.65;;;2.13;;
23722;SDS011;12042;52.136;5.584;2022-07-29T08:57:58;4.47;;;2.30;;
23722;SDS011;12042;52.136;5.584;2022-07-29T09:00:25;3.55;;;2.00;;
23722;SDS011;12042;52.136;5.584;2022-07-29T09:02:54;2.97;;;2.10;;
23722;SDS011;12042;52.136;5.584;2022-07-29T09:05:23;5.13;;;1.88;;
23722;SDS011;12042;52.136;5.584;2022-07-29T09:07:50;6.15;;;2.13;;
23722;SDS011;12042;52.136;5.584;2022-07-29T09:10:16;3.20;;;2.10;;
23722;SDS011;12042;52.136;5.584;2022-07-29T09:12:42;3.22;;;1.70;;
23722;SDS011;12042;52.136;5.584;2022-07-29T09:15:08;2.00;;;1.90;;
23722;SDS011;12042;52.136;5.584;2022-07-29T09:17:44;7.43;;;2.10;;
23722;SDS011;12042;52.136;5.584;2022-07-29T09:20:16;4.47;;;2.00;;
23722;SDS011;12042;52.136;5.584;2022-07-29T09:22:44;2.50;;;2.30;;
23722;SDS011;12042;52.136;5.584;2022-07-29T09:25:15;2.70;;;2.10;;
23722;SDS011;12042;52.136;5.584;2022-07-29T09:28:05;3.17;;;2.30;;
23722;SDS011;12042;52.136;5.584;2022-07-29T09:30:32;2.83;;;2.45;;
23722;SDS011;12042;52.136;5.584;2022-07-29T09:32:59;3.00;;;1.95;;
23722;SDS011;12042;52.136;5.584;2022-07-29T09:35:28;2.63;;;2.30;;
23722;SDS011;12042;52.136;5.584;2022-07-29T09:37:55;3.88;;;2.35;;
23722;SDS011;12042;52.136;5.584;2022-07-29T09:40:22;2.75;;;2.30;;
23722;SDS011;12042;52.136;5.584;2022-07-29T09:42:49;2.30;;;2.20;;
23722;SDS011;12042;52.136;5.584;2022-07-29T09:47:57;3.65;;;2.22;;
23722;SDS011;12042;52.136;5.584;2022-07-29T09:50:41;3.45;;;2.47;;
23722;SDS011;12042;52.136;5.584;2022-07-29T09:53:08;2.67;;;2.35;;
23722;SDS011;12042;52.136;5.584;2022-07-29T09:55:48;4.97;;;2.22;;
23722;SDS011;12042;52.136;5.584;2022-07-29T09:58:15;3.33;;;2.03;;
23722;SDS011;12042;52.136;5.584;2022-07-29T10:00:45;6.05;;;2.70;;
23722;SDS011;12042;52.136;5.584;2022-07-29T10:03:12;2.63;;;2.30;;
23722;SDS011;12042;52.136;5.584;2022-07-29T10:05:39;4.40;;;2.45;;
23722;SDS011;12042;52.136;5.584;2022-07-29T10:08:06;16.38;;;6.68;;
23722;SDS011;12042;52.136;5.584;2022-07-29T10:10:34;3.53;;;2.67;;
23722;SDS011;12042;52.136;5.584;2022-07-29T10:13:12;2.83;;;2.63;;
23722;SDS011;12042;52.136;5.584;2022-07-29T10:15:39;4.05;;;2.40;;
23722;SDS011;12042;52.136;5.584;2022-07-29T10:18:08;4.13;;;2.78;;
23722;SDS011;12042;52.136;5.584;2022-07-29T10:20:35;3.97;;;2.22;;
23722;SDS011;12042;52.136;5.584;2022-07-29T10:23:02;2.40;;;2.20;;
23722;SDS011;12042;52.136;5.584;2022-07-29T10:25:28;3.97;;;2.58;;
23722;SDS011;12042;52.136;5.584;2022-07-29T10:27:54;2.40;;;2.22;;
23722;SDS011;12042;52.136;5.584;2022-07-29T10:30:20;3.17;;;2.38;;
23722;SDS011;12042;52.136;5.584;2022-07-29T10:33:30;3.00;;;2.63;;
23722;SDS011;12042;52.136;5.584;2022-07-29T10:43:51;2.10;;;2.00;;
23722;SDS011;12042;52.136;5.584;2022-07-29T10:46:21;4.22;;;2.53;;
23722;SDS011;12042;52.136;5.584;2022-07-29T10:54:43;4.07;;;2.22;;
23722;SDS011;12042;52.136;5.584;2022-07-29T11:07:24;3.60;;;2.53;;
23722;SDS011;12042;52.136;5.584;2022-07-29T11:20:31;3.05;;;2.30;;
23722;SDS011;12042;52.136;5.584;2022-07-29T11:23:00;3.10;;;2.72;;
23722;SDS011;12042;52.136;5.584;2022-07-29T11:25:26;3.80;;;2.70;;
23722;SDS011;12042;52.136;5.584;2022-07-29T11:27:52;4.50;;;2.83;;
23722;SDS011;12042;52.136;5.584;2022-07-29T11:33:28;3.80;;;2.60;;
23722;SDS011;12042;52.136;5.584;2022-07-29T11:36:08;4.70;;;2.30;;
23722;SDS011;12042;52.136;5.584;2022-07-29T11:38:34;7.90;;;2.72;;
23722;SDS011;12042;52.136;5.584;2022-07-29T11:41:19;5.22;;;2.70;;
23722;SDS011;12042;52.136;5.584;2022-07-29T11:43:57;4.28;;;2.42;;
23722;SDS011;12042;52.136;5.584;2022-07-29T11:49:20;4.55;;;2.67;;
23722;SDS011;12042;52.136;5.584;2022-07-29T11:51:53;7.18;;;2.40;;
23722;SDS011;12042;52.136;5.584;2022-07-29T11:54:26;5.80;;;2.42;;
23722;SDS011;12042;52.136;5.584;2022-07-29T11:56:57;4.82;;;2.97;;
23722;SDS011;12042;52.136;5.584;2022-07-29T11:59:23;6.80;;;2.60;;
23722;SDS011;12042;52.136;5.584;2022-07-29T12:01:56;3.15;;;2.60;;
23722;SDS011;12042;52.136;5.584;2022-07-29T12:04:23;2.95;;;2.70;;
23722;SDS011;12042;52.136;5.584;2022-07-29T12:06:52;2.53;;;2.28;;
23722;SDS011;12042;52.136;5.584;2022-07-29T12:09:19;5.30;;;2.80;;
23722;SDS011;12042;52.136;5.584;2022-07-29T12:11:46;3.70;;;2.13;;
23722;SDS011;12042;52.136;5.584;2022-07-29T12:14:28;4.70;;;2.10;;
23722;SDS011;12042;52.136;5.584;2022-07-29T12:16:55;4.20;;;2.42;;
23722;SDS011;12042;52.136;5.584;2022-07-29T12:19:21;5.20;;;2.20;;
23722;SDS011;12042;52.136;5.584;2022-07-29T12:21:48;4.75;;;2.65;;
23722;SDS011;12042;52.136;5.584;2022-07-29T12:24:19;5.20;;;2.80;;
23722;SDS011;12042;52.136;5.584;2022-07-29T12:26:56;3.30;;;2.40;;
23722;SDS011;12042;52.136;5.584;2022-07-29T12:29:23;3.58;;;2.33;;
23722;SDS011;12042;52.136;5.584;2022-07-29T12:31:52;3.05;;;2.30;;
23722;SDS011;12042;52.136;5.584;2022-07-29T12:34:19;5.00;;;2.72;;
23722;SDS011;12042;52.136;5.584;2022-07-29T12:36:47;3.67;;;2.28;;
23722;SDS011;12042;52.136;5.584;2022-07-29T12:39:14;5.15;;;2.30;;
23722;SDS011;12042;52.136;5.584;2022-07-29T12:41:42;6.57;;;2.30;;
23722;SDS011;12042;52.136;5.584;2022-07-29T12:44:07;5.38;;;2.53;;
23722;SDS011;12042;52.136;5.584;2022-07-29T12:46:33;2.83;;;2.63;;
23722;SDS011;12042;52.136;5.584;2022-07-29T12:48:59;3.42;;;2.30;;
23722;SDS011;12042;52.136;5.584;2022-07-29T12:51:31;4.55;;;2.28;;
23722;SDS011;12042;52.136;5.584;2022-07-29T12:54:05;4.97;;;2.50;;
23722;SDS011;12042;52.136;5.584;2022-07-29T12:56:33;3.85;;;2.28;;
23722;SDS011;12042;52.136;5.584;2022-07-29T12:58:59;4.18;;;2.28;;
23722;SDS011;12042;52.136;5.584;2022-07-29T13:01:24;3.75;;;2.25;;
23722;SDS011;12042;52.136;5.584;2022-07-29T13:03:55;5.38;;;2.35;;
23722;SDS011;12042;52.136;5.584;2022-07-29T13:06:41;3.22;;;2.47;;
23722;SDS011;12042;52.136;5.584;2022-07-29T13:09:18;5.35;;;2.72;;
23722;SDS011;12042;52.136;5.584;2022-07-29T13:14:13;3.80;;;2.10;;
23722;SDS011;12042;52.136;5.584;2022-07-29T13:22:09;3.83;;;2.75;;
23722;SDS011;12042;52.136;5.584;2022-07-29T13:24:51;5.97;;;2.80;;
23722;SDS011;12042;52.136;5.584;2022-07-29T13:27:18;5.15;;;2.72;;
23722;SDS011;12042;52.136;5.584;2022-07-29T13:29:46;3.08;;;2.28;;
23722;SDS011;12042;52.136;5.584;2022-07-29T13:32:12;6.95;;;2.40;;
23722;SDS011;12042;52.136;5.584;2022-07-29T13:34:38;2.60;;;2.40;;
23722;SDS011;12042;52.136;5.584;2022-07-29T13:37:04;3.70;;;2.60;;
23722;SDS011;12042;52.136;5.584;2022-07-29T13:39:30;2.40;;;2.20;;
23722;SDS011;12042;52.136;5.584;2022-07-29T13:41:55;2.35;;;2.17;;
23722;SDS011;12042;52.136;5.584;2022-07-29T13:44:21;9.88;;;2.88;;
23722;SDS011;12042;52.136;5.584;2022-07-29T13:46:47;8.05;;;2.67;;
23722;SDS011;12042;52.136;5.584;2022-07-29T13:49:12;2.90;;;2.70;;
23722;SDS011;12042;52.136;5.584;2022-07-29T13:51:38;2.90;;;2.22;;
23722;SDS011;12042;52.136;5.584;2022-07-29T13:54:04;2.90;;;2.38;;
23722;SDS011;12042;52.136;5.584;2022-07-29T13:56:30;2.88;;;2.40;;
23722;SDS011;12042;52.136;5.584;2022-07-29T13:58:56;5.00;;;2.20;;
23722;SDS011;12042;52.136;5.584;2022-07-29T14:01:22;4.68;;;2.15;;
23722;SDS011;12042;52.136;5.584;2022-07-29T14:03:48;3.08;;;2.35;;
23722;SDS011;12042;52.136;5.584;2022-07-29T14:06:13;3.72;;;2.30;;
23722;SDS011;12042;52.136;5.584;2022-07-29T14:08:39;6.63;;;2.40;;
23722;SDS011;12042;52.136;5.584;2022-07-29T14:11:05;4.60;;;2.17;;
23722;SDS011;12042;52.136;5.584;2022-07-29T14:13:30;2.80;;;2.50;;
23722;SDS011;12042;52.136;5.584;2022-07-29T14:15:56;2.88;;;2.50;;
23722;SDS011;12042;52.136;5.584;2022-07-29T14:18:22;3.15;;;2.67;;
23722;SDS011;12042;52.136;5.584;2022-07-29T14:20:50;6.70;;;2.70;;
23722;SDS011;12042;52.136;5.584;2022-07-29T14:23:16;5.30;;;2.35;;
23722;SDS011;12042;52.136;5.584;2022-07-29T14:25:42;3.45;;;2.00;;
23722;SDS011;12042;52.136;5.584;2022-07-29T14:28:08;2.40;;;2.20;;
23722;SDS011;12042;52.136;5.584;2022-07-29T14:30:34;4.38;;;1.73;;
23722;SDS011;12042;52.136;5.584;2022-07-29T14:32:59;2.30;;;2.10;;
23722;SDS011;12042;52.136;5.584;2022-07-29T14:35:25;2.53;;;2.10;;
23722;SDS011;12042;52.136;5.584;2022-07-29T14:37:51;2.92;;;2.10;;
23722;SDS011;12042;52.136;5.584;2022-07-29T14:40:16;4.82;;;2.00;;
23722;SDS011;12042;52.136;5.584;2022-07-29T14:42:42;4.88;;;1.52;;
23722;SDS011;12042;52.136;5.584;2022-07-29T14:45:08;3.65;;;1.65;;
23722;SDS011;12042;52.136;5.584;2022-07-29T14:47:37;4.15;;;1.25;;
23722;SDS011;12042;52.136;5.584;2022-07-29T14:50:03;2.05;;;1.23;;
23722;SDS011;12042;52.136;5.584;2022-07-29T14:52:30;3.45;;;1.38;;
23722;SDS011;12042;52.136;5.584;2022-07-29T14:54:56;3.38;;;1.42;;
23722;SDS011;12042;52.136;5.584;2022-07-29T14:57:22;3.13;;;1.60;;
23722;SDS011;12042;52.136;5.584;2022-07-29T14:59:48;3.83;;;1.60;;
23722;SDS011;12042;52.136;5.584;2022-07-29T15:02:14;2.17;;;1.63;;
23722;SDS011;12042;52.136;5.584;2022-07-29T15:04:39;2.20;;;1.45;;
23722;SDS011;12042;52.136;5.584;2022-07-29T15:07:05;1.60;;;1.50;;
23722;SDS011;12042;52.136;5.584;2022-07-29T15:09:30;3.83;;;1.95;;
23722;SDS011;12042;52.136;5.584;2022-07-29T15:11:56;2.67;;;1.60;;
23722;SDS011;12042;52.136;5.584;2022-07-29T15:14:22;5.00;;;1.83;;
23722;SDS011;12042;52.136;5.584;2022-07-29T15:16:47;3.00;;;1.55;;
23722;SDS011;12042;52.136;5.584;2022-07-29T15:19:13;5.13;;;1.67;;
23722;SDS011;12042;52.136;5.584;2022-07-29T15:21:39;4.07;;;1.60;;
23722;SDS011;12042;52.136;5.584;2022-07-29T15:24:05;1.75;;;1.65;;
23722;SDS011;12042;52.136;5.584;2022-07-29T15:26:32;3.55;;;1.42;;
23722;SDS011;12042;52.136;5.584;2022-07-29T15:28:58;5.93;;;1.60;;
23722;SDS011;12042;52.136;5.584;2022-07-29T15:31:24;2.95;;;1.70;;
23722;SDS011;12042;52.136;5.584;2022-07-29T15:33:50;2.00;;;1.83;;
23722;SDS011;12042;52.136;5.584;2022-07-29T15:36:15;3.00;;;2.30;;
23722;SDS011;12042;52.136;5.584;2022-07-29T15:38:41;3.63;;;2.30;;
23722;SDS011;12042;52.136;5.584;2022-07-29T15:41:07;4.88;;;2.22;;
23722;SDS011;12042;52.136;5.584;2022-07-29T15:43:33;6.95;;;3.25;;
23722;SDS011;12042;52.136;5.584;2022-07-29T15:46:00;7.45;;;2.83;;
23722;SDS011;12042;52.136;5.584;2022-07-29T15:48:44;3.10;;;2.70;;
23722;SDS011;12042;52.136;5.584;2022-07-29T15:51:10;3.38;;;2.63;;